MPSM

Scarlett Martínez International Airport

Río Hato, Panama
TAF MPSM 181700Z 1818/1924 34006KT 9999 FEW020 SCT080 PROB30 TEMPO 1820/1824 14008KT 6000 TSRA SCT015CB BKN090
Issued Valid From Valid To
Jul-18 @ 17:00 UTC
(5 hours ago)
Jul-18 @ 18:00 UTC
(4 hours ago)
Jul-20 @ 00:00 UTC
(-1 days ago)
Jul-18 @ 18:00 to Jul-20 @ 00:00
TAF MPSM 181700Z 1818/1924 34006KT 9999 FEW020 SCT080
Wind Visibility Clouds
340° at 6 knots 10,000+ meters
  • Few at 2,000' AGL
  • Scattered at 8,000' AGL
Temporary  (Probability 30%) Jul-18 @ 20:00 to Jul-19 @ 00:00
PROB30 TEMPO 1820/1824 14008KT 6000 TSRA SCT015CB BKN090
Wind Visibility Clouds Conditions
140° at 8 knots 6,003 meters
  • Scattered at 1,500' AGL
  • Broken at 9,000' AGL
  • Thunderstorm
  • Rain
TAF MPSM 181700Z 1818/1924 34006KT 9999 FEW020 SCT080 PROB30 TEMPO 1820/1824 14008KT 6000 TSRA SCT015CB BKN090
Issued Jul-18 @ 17:00 UTC
(5 hours ago)
Valid From Jul-18 @ 18:00 UTC
(4 hours ago)
Valid To Jul-20 @ 00:00 UTC
(-1 days ago)
Jul-18 @ 18:00 - Jul-20 @ 00:00
Wind Visibility
340° at 6 knots 10,000+ meters
Clouds
  • Few at 2,000' AGL
  • Scattered at 8,000' AGL
Probability 30% Temporary Jul-18 @ 20:00 - Jul-19 @ 00:00
Wind Visibility
140° at 8 knots 6,003 meters
Clouds
  • Scattered at 1,500' AGL
  • Broken at 9,000' AGL
Conditions
  • Thunderstorm
  • Rain